Pagrindinis puslapis
METAR-TAF:

METAR-TAF

Oro uostai :

Edinburgo oro uostas

Edinburgas, Škotija

platuma: 55-57N, ilguma: 003-21W, Aukštis: 41 m

Dabartinis oras

Ataskaita buvo paskelbta 25 minutes, ne 20:20 UTC
Vėjas 3 kt iš Vakarų/Pietvakarių
Temperatūra -2°C
Drėgmė 86%
Slėgis 994 hPa
Matomumas 10 km arba daugiau
nėra debesų žemiau 1500 m ir nėra kamuolinių lietaus debesų

METAR: EGPH 232020Z 24003KT CAVOK M02/M04 Q0994

Laikas: 20:45 (20:45 UTC)

Prognozė

Ataskaita buvo paskelbta 3 valandos ir 48 minutes, ne 16:57 UTC
Prognozė galioja nuo 23 metu 18 UTC su 24 metu 18 UTC
Vėjas 8 kt iš Vakarų/Pietvakarių
Matomumas 10 km arba daugiau
Mažai debesys ne aukštis 3000 ft
Tikimybė 30% :
Laikinai
nuo 23 metu 22 UTC su 24 metu 08 UTC
Su prošvaistėmis ne aukštis 800 ft

TAF: EGPH 231657Z 2318/2418 24008KT 9999 FEW030 PROB30 TEMPO 2322/2408 BKN008

Orai ataskaitas ir orų prognozės (METAR, TAF).

turimą stotys yra geltonos ir raudonos taškus žemėlapyje.

Perkelti pele per norėdami pamatyti stoties vardą.

Tada spustelėkite, norėdami matyti oro stebėjimo ir prognozės.

Norėdami pakeisti žemėlapį: spustelėkite ant žalios mygtukų su juodo kryžiaus žemyn,; žalią mygtuką su brūkšneliu, jei norite nutolinti; arba žalių rodyklių gretimoms žemėlapius.


METAR-TAF: